sensor_id;sensor_type;location;lat;lon;timestamp;pressure;altitude;pressure_sealevel;temperature;humidity
55347;BME280;41218;55.700;38.270;2023-03-19T00:01:49;101298.13;;;-3.54;60.72
55347;BME280;41218;55.700;38.270;2023-03-19T00:06:51;101297.75;;;-3.57;60.53
55347;BME280;41218;55.700;38.270;2023-03-19T00:11:52;101298.56;;;-3.57;60.58
55347;BME280;41218;55.700;38.270;2023-03-19T00:16:52;101293.88;;;-3.62;60.50
55347;BME280;41218;55.700;38.270;2023-03-19T00:21:53;101298.13;;;-3.66;60.24
55347;BME280;41218;55.700;38.270;2023-03-19T00:26:53;101288.03;;;-3.70;60.71
55347;BME280;41218;55.700;38.270;2023-03-19T00:31:54;101279.56;;;-3.74;60.63
55347;BME280;41218;55.700;38.270;2023-03-19T00:36:55;101276.53;;;-3.77;60.42
55347;BME280;41218;55.700;38.270;2023-03-19T00:41:56;101258.56;;;-3.84;60.35
55347;BME280;41218;55.700;38.270;2023-03-19T00:46:56;101264.22;;;-3.85;60.56
55347;BME280;41218;55.700;38.270;2023-03-19T00:51:57;101267.38;;;-3.88;60.64
55347;BME280;41218;55.700;38.270;2023-03-19T00:56:57;101259.75;;;-3.91;60.71
55347;BME280;41218;55.700;38.270;2023-03-19T01:01:58;101249.66;;;-3.96;60.60
55347;BME280;41218;55.700;38.270;2023-03-19T01:06:58;101244.16;;;-4.01;60.73
55347;BME280;41218;55.700;38.270;2023-03-19T01:11:59;101231.00;;;-4.09;61.04
55347;BME280;41218;55.700;38.270;2023-03-19T01:17:03;101238.25;;;-4.10;60.94
55347;BME280;41218;55.700;38.270;2023-03-19T01:22:04;101242.75;;;-4.15;61.13
55347;BME280;41218;55.700;38.270;2023-03-19T01:27:05;101245.09;;;-4.19;61.24
55347;BME280;41218;55.700;38.270;2023-03-19T01:32:05;101234.16;;;-4.24;61.51
55347;BME280;41218;55.700;38.270;2023-03-19T01:37:06;101238.16;;;-4.27;61.02
55347;BME280;41218;55.700;38.270;2023-03-19T01:42:07;101232.88;;;-4.33;60.50
55347;BME280;41218;55.700;38.270;2023-03-19T01:47:24;101229.81;;;-4.37;60.75
55347;BME280;41218;55.700;38.270;2023-03-19T01:52:31;101228.06;;;-4.43;61.27
55347;BME280;41218;55.700;38.270;2023-03-19T01:57:33;101223.00;;;-4.51;61.03
55347;BME280;41218;55.700;38.270;2023-03-19T02:02:34;101225.94;;;-4.53;60.99
55347;BME280;41218;55.700;38.270;2023-03-19T02:07:37;101219.34;;;-4.57;61.36
55347;BME280;41218;55.700;38.270;2023-03-19T02:12:38;101221.00;;;-4.56;61.43
55347;BME280;41218;55.700;38.270;2023-03-19T02:17:40;101195.75;;;-4.73;61.39
55347;BME280;41218;55.700;38.270;2023-03-19T02:28:05;101204.91;;;-4.74;61.67
55347;BME280;41218;55.700;38.270;2023-03-19T02:33:13;101209.94;;;-4.78;61.36
55347;BME280;41218;55.700;38.270;2023-03-19T02:38:14;101206.88;;;-4.81;61.27
55347;BME280;41218;55.700;38.270;2023-03-19T02:43:15;101204.91;;;-4.86;61.13
55347;BME280;41218;55.700;38.270;2023-03-19T02:48:16;101202.88;;;-4.91;61.96
55347;BME280;41218;55.700;38.270;2023-03-19T02:53:17;101202.16;;;-4.98;61.81
55347;BME280;41218;55.700;38.270;2023-03-19T02:58:18;101199.91;;;-5.01;61.31
55347;BME280;41218;55.700;38.270;2023-03-19T03:03:18;101202.88;;;-5.03;61.66
55347;BME280;41218;55.700;38.270;2023-03-19T03:08:19;101198.16;;;-5.07;62.12
55347;BME280;41218;55.700;38.270;2023-03-19T03:13:20;101193.44;;;-5.12;61.39
55347;BME280;41218;55.700;38.270;2023-03-19T03:18:21;101200.94;;;-5.14;61.92
55347;BME280;41218;55.700;38.270;2023-03-19T03:23:21;101181.59;;;-5.22;62.02
55347;BME280;41218;55.700;38.270;2023-03-19T03:28:22;101193.19;;;-5.22;61.75
55347;BME280;41218;55.700;38.270;2023-03-19T03:33:25;101190.13;;;-5.26;61.29
55347;BME280;41218;55.700;38.270;2023-03-19T03:38:26;101193.88;;;-5.27;61.55
55347;BME280;41218;55.700;38.270;2023-03-19T03:43:26;101186.72;;;-5.33;61.90
55347;BME280;41218;55.700;38.270;2023-03-19T03:48:27;101179.75;;;-5.40;61.46
55347;BME280;41218;55.700;38.270;2023-03-19T03:53:27;101179.75;;;-5.40;61.80
55347;BME280;41218;55.700;38.270;2023-03-19T03:58:28;101175.66;;;-5.43;61.53
55347;BME280;41218;55.700;38.270;2023-03-19T04:03:29;101176.91;;;-5.46;61.84
55347;BME280;41218;55.700;38.270;2023-03-19T04:08:29;101162.94;;;-5.54;61.77
55347;BME280;41218;55.700;38.270;2023-03-19T04:13:30;101164.94;;;-5.50;61.56
55347;BME280;41218;55.700;38.270;2023-03-19T04:18:36;101159.81;;;-5.51;62.20
55347;BME280;41218;55.700;38.270;2023-03-19T04:23:37;101141.50;;;-5.61;62.39
55347;BME280;41218;55.700;38.270;2023-03-19T04:28:37;101152.41;;;-5.56;62.15
55347;BME280;41218;55.700;38.270;2023-03-19T04:33:38;101155.47;;;-5.52;61.76
55347;BME280;41218;55.700;38.270;2023-03-19T04:38:39;101134.00;;;-5.59;62.31
55347;BME280;41218;55.700;38.270;2023-03-19T04:43:39;101147.16;;;-5.51;61.61
55347;BME280;41218;55.700;38.270;2023-03-19T04:48:40;101148.56;;;-5.48;61.95
55347;BME280;41218;55.700;38.270;2023-03-19T04:53:40;101130.28;;;-5.46;62.37
55347;BME280;41218;55.700;38.270;2023-03-19T04:58:41;101135.59;;;-5.39;61.92
55347;BME280;41218;55.700;38.270;2023-03-19T05:03:42;101134.66;;;-5.33;61.76
55347;BME280;41218;55.700;38.270;2023-03-19T05:08:42;101133.50;;;-5.26;61.80
55347;BME280;41218;55.700;38.270;2023-03-19T05:13:43;101129.06;;;-5.20;61.72
55347;BME280;41218;55.700;38.270;2023-03-19T05:18:44;101131.00;;;-5.09;61.80
55347;BME280;41218;55.700;38.270;2023-03-19T05:23:44;101126.06;;;-5.00;61.13
55347;BME280;41218;55.700;38.270;2023-03-19T05:28:45;101126.09;;;-4.88;61.57
55347;BME280;41218;55.700;38.270;2023-03-19T05:33:45;101107.66;;;-4.79;61.54
55347;BME280;41218;55.700;38.270;2023-03-19T05:38:46;101114.00;;;-4.62;61.56
55347;BME280;41218;55.700;38.270;2023-03-19T05:43:46;101111.88;;;-4.48;61.64
55347;BME280;41218;55.700;38.270;2023-03-19T05:48:47;101090.28;;;-4.36;61.69
55347;BME280;41218;55.700;38.270;2023-03-19T05:53:47;101080.03;;;-4.23;61.48
55347;BME280;41218;55.700;38.270;2023-03-19T05:58:48;101083.13;;;-4.02;60.81
55347;BME280;41218;55.700;38.270;2023-03-19T06:03:48;101076.97;;;-3.86;61.11
55347;BME280;41218;55.700;38.270;2023-03-19T06:08:49;101065.38;;;-3.69;61.38
55347;BME280;41218;55.700;38.270;2023-03-19T06:13:49;101049.34;;;-3.59;60.79
55347;BME280;41218;55.700;38.270;2023-03-19T06:18:50;101047.72;;;-3.43;61.39
55347;BME280;41218;55.700;38.270;2023-03-19T06:23:50;101041.59;;;-3.22;60.54
55347;BME280;41218;55.700;38.270;2023-03-19T06:28:51;101043.13;;;-3.09;60.92
55347;BME280;41218;55.700;38.270;2023-03-19T06:33:55;101044.00;;;-2.86;60.13
55347;BME280;41218;55.700;38.270;2023-03-19T06:38:56;101039.88;;;-2.72;60.03
55347;BME280;41218;55.700;38.270;2023-03-19T06:43:56;101039.91;;;-2.50;60.17
55347;BME280;41218;55.700;38.270;2023-03-19T06:48:57;101041.00;;;-2.29;59.71
55347;BME280;41218;55.700;38.270;2023-03-19T06:53:57;101041.16;;;-2.13;59.21
55347;BME280;41218;55.700;38.270;2023-03-19T06:58:58;101046.44;;;-2.02;59.33
55347;BME280;41218;55.700;38.270;2023-03-19T07:03:58;101035.78;;;-1.86;59.35
55347;BME280;41218;55.700;38.270;2023-03-19T07:08:59;101032.09;;;-1.75;58.64
55347;BME280;41218;55.700;38.270;2023-03-19T07:14:00;101034.97;;;-1.59;58.45
55347;BME280;41218;55.700;38.270;2023-03-19T07:19:00;101026.38;;;-1.46;58.58
55347;BME280;41218;55.700;38.270;2023-03-19T07:24:01;101018.31;;;-1.36;58.34
55347;BME280;41218;55.700;38.270;2023-03-19T07:29:02;101009.22;;;-1.25;57.84
55347;BME280;41218;55.700;38.270;2023-03-19T07:34:02;101002.22;;;-1.15;57.69
55347;BME280;41218;55.700;38.270;2023-03-19T07:39:03;101006.13;;;-1.01;57.31
55347;BME280;41218;55.700;38.270;2023-03-19T07:44:04;100997.50;;;-0.88;57.51
55347;BME280;41218;55.700;38.270;2023-03-19T07:49:04;101002.47;;;-0.69;57.54
55347;BME280;41218;55.700;38.270;2023-03-19T07:54:05;100997.94;;;-0.53;56.83
55347;BME280;41218;55.700;38.270;2023-03-19T07:59:06;100991.22;;;-0.41;56.37
55347;BME280;41218;55.700;38.270;2023-03-19T08:04:06;100989.09;;;-0.28;56.55
55347;BME280;41218;55.700;38.270;2023-03-19T08:09:07;100990.75;;;-0.17;56.57
55347;BME280;41218;55.700;38.270;2023-03-19T08:14:08;100983.16;;;-0.05;55.86
55347;BME280;41218;55.700;38.270;2023-03-19T08:19:09;100977.50;;;0.17;56.07
55347;BME280;41218;55.700;38.270;2023-03-19T08:24:09;100970.72;;;0.35;55.67
55347;BME280;41218;55.700;38.270;2023-03-19T08:29:10;100964.19;;;0.47;55.31
55347;BME280;41218;55.700;38.270;2023-03-19T08:34:11;100962.00;;;0.59;55.53
55347;BME280;41218;55.700;38.270;2023-03-19T08:39:12;100949.19;;;0.75;54.88
55347;BME280;41218;55.700;38.270;2023-03-19T08:44:13;100950.81;;;0.86;54.60
55347;BME280;41218;55.700;38.270;2023-03-19T08:49:13;100948.06;;;0.96;54.88
55347;BME280;41218;55.700;38.270;2023-03-19T08:54:14;100935.53;;;1.00;54.48
55347;BME280;41218;55.700;38.270;2023-03-19T08:59:15;100927.63;;;1.04;53.57
55347;BME280;41218;55.700;38.270;2023-03-19T09:04:16;100925.69;;;1.15;53.69
55347;BME280;41218;55.700;38.270;2023-03-19T09:09:18;100909.06;;;1.16;53.26
55347;BME280;41218;55.700;38.270;2023-03-19T09:14:19;100904.13;;;1.29;53.59
55347;BME280;41218;55.700;38.270;2023-03-19T09:19:19;100906.47;;;1.46;53.63
55347;BME280;41218;55.700;38.270;2023-03-19T09:24:20;100895.31;;;1.47;52.70
55347;BME280;41218;55.700;38.270;2023-03-19T09:29:21;100893.09;;;1.49;52.53
55347;BME280;41218;55.700;38.270;2023-03-19T09:34:22;100887.31;;;1.61;52.15
55347;BME280;41218;55.700;38.270;2023-03-19T09:39:22;100878.56;;;1.64;51.76
55347;BME280;41218;55.700;38.270;2023-03-19T09:44:29;100878.56;;;1.69;51.88
55347;BME280;41218;55.700;38.270;2023-03-19T09:49:43;100868.09;;;1.82;51.23
55347;BME280;41218;55.700;38.270;2023-03-19T09:54:48;100857.19;;;1.87;51.28
55347;BME280;41218;55.700;38.270;2023-03-19T09:59:51;100850.28;;;1.94;51.42
55347;BME280;41218;55.700;38.270;2023-03-19T10:15:16;100836.09;;;2.27;50.73
55347;BME280;41218;55.700;38.270;2023-03-19T10:20:28;100816.38;;;2.35;51.32
55347;BME280;41218;55.700;38.270;2023-03-19T10:25:31;100813.84;;;2.44;51.24
55347;BME280;41218;55.700;38.270;2023-03-19T10:30:33;100813.94;;;2.57;51.31
55347;BME280;41218;55.700;38.270;2023-03-19T10:35:38;100807.00;;;2.70;51.23
55347;BME280;41218;55.700;38.270;2023-03-19T10:41:20;100806.91;;;2.75;51.41
55347;BME280;41218;55.700;38.270;2023-03-19T10:46:23;100805.19;;;2.85;51.90
55347;BME280;41218;55.700;38.270;2023-03-19T10:51:25;100796.09;;;2.89;51.97
55347;BME280;41218;55.700;38.270;2023-03-19T10:56:28;100805.28;;;2.98;51.59
55347;BME280;41218;55.700;38.270;2023-03-19T11:01:37;100791.63;;;2.98;51.80
55347;BME280;41218;55.700;38.270;2023-03-19T11:06:38;100788.00;;;3.03;52.01
55347;BME280;41218;55.700;38.270;2023-03-19T11:11:44;100787.19;;;3.03;51.81
55347;BME280;41218;55.700;38.270;2023-03-19T11:16:58;100795.25;;;3.13;51.59
55347;BME280;41218;55.700;38.270;2023-03-19T11:27:02;100790.03;;;3.16;51.58
55347;BME280;41218;55.700;38.270;2023-03-19T11:32:11;100768.75;;;3.13;51.68
55347;BME280;41218;55.700;38.270;2023-03-19T11:37:36;100767.50;;;3.25;51.44
55347;BME280;41218;55.700;38.270;2023-03-19T11:42:58;100754.41;;;3.21;51.81
55347;BME280;41218;55.700;38.270;2023-03-19T11:59:38;100728.47;;;3.38;51.96
55347;BME280;41218;55.700;38.270;2023-03-19T12:04:57;100736.28;;;3.45;51.94
55347;BME280;41218;55.700;38.270;2023-03-19T12:25:57;100701.38;;;3.41;52.17
55347;BME280;41218;55.700;38.270;2023-03-19T12:36:26;100693.91;;;3.47;52.39
55347;BME280;41218;55.700;38.270;2023-03-19T12:41:28;100683.19;;;3.51;52.25
55347;BME280;41218;55.700;38.270;2023-03-19T12:46:42;100679.09;;;3.48;52.45
55347;BME280;41218;55.700;38.270;2023-03-19T12:51:53;100672.63;;;3.44;52.45
55347;BME280;41218;55.700;38.270;2023-03-19T12:57:07;100666.88;;;3.46;52.33
55347;BME280;41218;55.700;38.270;2023-03-19T13:02:34;100663.84;;;3.47;52.37
55347;BME280;41218;55.700;38.270;2023-03-19T13:13:16;100654.22;;;3.50;52.27
55347;BME280;41218;55.700;38.270;2023-03-19T13:18:34;100642.25;;;3.46;52.15
55347;BME280;41218;55.700;38.270;2023-03-19T13:23:37;100643.69;;;3.43;52.13
55347;BME280;41218;55.700;38.270;2023-03-19T13:28:59;100633.84;;;3.42;52.54
55347;BME280;41218;55.700;38.270;2023-03-19T13:34:03;100629.19;;;3.42;52.66
55347;BME280;41218;55.700;38.270;2023-03-19T13:39:13;100607.72;;;3.36;52.37
55347;BME280;41218;55.700;38.270;2023-03-19T13:54:38;100606.13;;;3.35;52.95
55347;BME280;41218;55.700;38.270;2023-03-19T13:59:41;100614.91;;;3.32;53.14
55347;BME280;41218;55.700;38.270;2023-03-19T14:04:50;100605.59;;;3.33;52.68
55347;BME280;41218;55.700;38.270;2023-03-19T14:15:13;100579.16;;;3.28;52.74
55347;BME280;41218;55.700;38.270;2023-03-19T14:25:20;100583.41;;;3.20;52.90
55347;BME280;41218;55.700;38.270;2023-03-19T14:30:39;100580.25;;;3.13;52.80
55347;BME280;41218;55.700;38.270;2023-03-19T14:35:44;100577.97;;;3.01;53.24
55347;BME280;41218;55.700;38.270;2023-03-19T14:40:50;100582.19;;;2.94;53.20
55347;BME280;41218;55.700;38.270;2023-03-19T14:56:31;100555.22;;;2.73;53.21
55347;BME280;41218;55.700;38.270;2023-03-19T15:01:37;100566.81;;;2.65;53.63
55347;BME280;41218;55.700;38.270;2023-03-19T15:06:42;100559.59;;;2.55;53.70
55347;BME280;41218;55.700;38.270;2023-03-19T15:17:14;100569.44;;;2.37;54.25
55347;BME280;41218;55.700;38.270;2023-03-19T15:22:30;100574.19;;;2.27;54.62
55347;BME280;41218;55.700;38.270;2023-03-19T15:27:32;100569.16;;;2.15;54.70
55347;BME280;41218;55.700;38.270;2023-03-19T15:32:41;100568.59;;;1.99;55.45
55347;BME280;41218;55.700;38.270;2023-03-19T15:37:46;100580.94;;;1.91;55.16
55347;BME280;41218;55.700;38.270;2023-03-19T15:42:49;100573.22;;;1.74;55.46
55347;BME280;41218;55.700;38.270;2023-03-19T15:47:55;100575.25;;;1.64;55.66
55347;BME280;41218;55.700;38.270;2023-03-19T15:53:00;100566.69;;;1.51;55.87
55347;BME280;41218;55.700;38.270;2023-03-19T15:58:06;100567.38;;;1.38;56.29
55347;BME280;41218;55.700;38.270;2023-03-19T16:03:16;100568.56;;;1.27;56.55
55347;BME280;41218;55.700;38.270;2023-03-19T16:08:21;100562.69;;;1.14;56.68
55347;BME280;41218;55.700;38.270;2023-03-19T16:13:29;100556.53;;;1.04;57.01
55347;BME280;41218;55.700;38.270;2023-03-19T16:23:55;100566.50;;;0.84;57.41
55347;BME280;41218;55.700;38.270;2023-03-19T16:39:54;100569.19;;;0.55;58.33
55347;BME280;41218;55.700;38.270;2023-03-19T16:44:55;100559.44;;;0.44;58.17
55347;BME280;41218;55.700;38.270;2023-03-19T16:49:56;100548.38;;;0.30;58.21
55347;BME280;41218;55.700;38.270;2023-03-19T16:54:58;100560.91;;;0.31;58.39
55347;BME280;41218;55.700;38.270;2023-03-19T16:59:58;100563.09;;;0.24;58.83
55347;BME280;41218;55.700;38.270;2023-03-19T17:04:59;100556.06;;;0.17;59.05
55347;BME280;41218;55.700;38.270;2023-03-19T17:09:59;100553.41;;;0.07;58.88
55347;BME280;41218;55.700;38.270;2023-03-19T17:15:00;100562.94;;;0.05;59.26
55347;BME280;41218;55.700;38.270;2023-03-19T17:20:01;100561.88;;;-0.05;59.02
55347;BME280;41218;55.700;38.270;2023-03-19T17:25:02;100552.13;;;-0.11;59.38
55347;BME280;41218;55.700;38.270;2023-03-19T17:30:02;100559.22;;;-0.15;59.80
55347;BME280;41218;55.700;38.270;2023-03-19T17:35:18;100554.63;;;-0.19;59.86
55347;BME280;41218;55.700;38.270;2023-03-19T17:40:24;100556.00;;;-0.27;59.89
55347;BME280;41218;55.700;38.270;2023-03-19T17:45:28;100545.41;;;-0.29;60.19
55347;BME280;41218;55.700;38.270;2023-03-19T17:50:29;100546.78;;;-0.31;59.54
55347;BME280;41218;55.700;38.270;2023-03-19T17:55:30;100548.16;;;-0.39;60.12
55347;BME280;41218;55.700;38.270;2023-03-19T18:00:31;100546.56;;;-0.45;60.26
55347;BME280;41218;55.700;38.270;2023-03-19T18:05:32;100542.22;;;-0.51;60.36
55347;BME280;41218;55.700;38.270;2023-03-19T18:10:32;100536.28;;;-0.64;60.69
55347;BME280;41218;55.700;38.270;2023-03-19T18:15:35;100539.81;;;-0.63;60.71
55347;BME280;41218;55.700;38.270;2023-03-19T18:20:37;100535.22;;;-0.68;61.02
55347;BME280;41218;55.700;38.270;2023-03-19T18:25:39;100531.44;;;-0.72;61.08
55347;BME280;41218;55.700;38.270;2023-03-19T18:30:40;100522.78;;;-0.79;61.07
55347;BME280;41218;55.700;38.270;2023-03-19T18:35:42;100521.41;;;-0.82;60.99
55347;BME280;41218;55.700;38.270;2023-03-19T18:40:45;100512.47;;;-0.92;61.17
55347;BME280;41218;55.700;38.270;2023-03-19T18:45:48;100516.81;;;-0.91;61.09
55347;BME280;41218;55.700;38.270;2023-03-19T18:50:51;100514.38;;;-0.98;61.40
55347;BME280;41218;55.700;38.270;2023-03-19T18:55:52;100508.72;;;-1.07;61.47
55347;BME280;41218;55.700;38.270;2023-03-19T19:00:53;100514.94;;;-1.06;61.68
55347;BME280;41218;55.700;38.270;2023-03-19T19:05:54;100505.75;;;-1.15;61.46
55347;BME280;41218;55.700;38.270;2023-03-19T19:10:58;100510.34;;;-1.16;61.77
55347;BME280;41218;55.700;38.270;2023-03-19T19:16:01;100507.38;;;-1.19;62.04
55347;BME280;41218;55.700;38.270;2023-03-19T19:21:01;100505.19;;;-1.23;61.94
55347;BME280;41218;55.700;38.270;2023-03-19T19:26:02;100508.16;;;-1.24;61.98
55347;BME280;41218;55.700;38.270;2023-03-19T19:31:03;100501.97;;;-1.30;61.86
55347;BME280;41218;55.700;38.270;2023-03-19T19:36:04;100499.78;;;-1.33;61.99
55347;BME280;41218;55.700;38.270;2023-03-19T19:41:11;100498.44;;;-1.35;62.08
55347;BME280;41218;55.700;38.270;2023-03-19T19:46:14;100484.88;;;-1.46;62.21
55347;BME280;41218;55.700;38.270;2023-03-19T19:51:20;100491.38;;;-1.47;62.24
55347;BME280;41218;55.700;38.270;2023-03-19T19:56:23;100497.34;;;-1.50;62.22
55347;BME280;41218;55.700;38.270;2023-03-19T20:01:24;100495.16;;;-1.53;62.25
55347;BME280;41218;55.700;38.270;2023-03-19T20:06:25;100488.66;;;-1.57;62.09
55347;BME280;41218;55.700;38.270;2023-03-19T20:11:26;100475.66;;;-1.65;62.35
55347;BME280;41218;55.700;38.270;2023-03-19T20:16:26;100482.16;;;-1.66;62.52
55347;BME280;41218;55.700;38.270;2023-03-19T20:21:27;100479.97;;;-1.69;62.49
55347;BME280;41218;55.700;38.270;2023-03-19T20:26:28;100483.25;;;-1.72;62.29
55347;BME280;41218;55.700;38.270;2023-03-19T20:31:29;100487.00;;;-1.78;62.26
55347;BME280;41218;55.700;38.270;2023-03-19T20:36:31;100480.78;;;-1.84;62.15
55347;BME280;41218;55.700;38.270;2023-03-19T20:41:31;100472.38;;;-1.88;62.38
55347;BME280;41218;55.700;38.270;2023-03-19T20:46:32;100481.31;;;-1.92;62.62
55347;BME280;41218;55.700;38.270;2023-03-19T20:51:33;100481.56;;;-1.99;63.04
55347;BME280;41218;55.700;38.270;2023-03-19T20:56:34;100485.06;;;-2.04;62.77
55347;BME280;41218;55.700;38.270;2023-03-19T21:01:38;100488.59;;;-2.08;62.63
55347;BME280;41218;55.700;38.270;2023-03-19T21:06:38;100483.97;;;-2.18;63.21
55347;BME280;41218;55.700;38.270;2023-03-19T21:11:40;100485.59;;;-2.17;62.72
55347;BME280;41218;55.700;38.270;2023-03-19T21:16:41;100473.09;;;-2.23;63.23
55347;BME280;41218;55.700;38.270;2023-03-19T21:21:41;100478.25;;;-2.27;62.97
55347;BME280;41218;55.700;38.270;2023-03-19T21:26:42;100472.53;;;-2.35;63.07
55347;BME280;41218;55.700;38.270;2023-03-19T21:31:45;100474.69;;;-2.37;63.21
55347;BME280;41218;55.700;38.270;2023-03-19T21:36:46;100468.72;;;-2.39;63.31
55347;BME280;41218;55.700;38.270;2023-03-19T21:41:47;100470.88;;;-2.47;63.07
55347;BME280;41218;55.700;38.270;2023-03-19T21:46:48;100471.13;;;-2.48;62.93
55347;BME280;41218;55.700;38.270;2023-03-19T21:51:48;100462.47;;;-2.55;63.61
55347;BME280;41218;55.700;38.270;2023-03-19T21:56:49;100468.09;;;-2.62;63.23
55347;BME280;41218;55.700;38.270;2023-03-19T22:01:50;100456.47;;;-2.63;63.10
55347;BME280;41218;55.700;38.270;2023-03-19T22:06:50;100462.94;;;-2.69;63.80
55347;BME280;41218;55.700;38.270;2023-03-19T22:11:51;100464.28;;;-2.71;63.48
55347;BME280;41218;55.700;38.270;2023-03-19T22:16:53;100460.75;;;-2.77;63.43
55347;BME280;41218;55.700;38.270;2023-03-19T22:21:54;100453.94;;;-2.85;63.41
55347;BME280;41218;55.700;38.270;2023-03-19T22:26:56;100453.63;;;-2.88;63.36
55347;BME280;41218;55.700;38.270;2023-03-19T22:31:57;100447.13;;;-2.92;63.70
55347;BME280;41218;55.700;38.270;2023-03-19T22:36:58;100453.63;;;-2.93;63.83
55347;BME280;41218;55.700;38.270;2023-03-19T22:41:58;100444.41;;;-2.97;63.59
55347;BME280;41218;55.700;38.270;2023-03-19T22:47:00;100442.75;;;-3.04;63.68
55347;BME280;41218;55.700;38.270;2023-03-19T22:52:01;100438.69;;;-3.06;63.81
55347;BME280;41218;55.700;38.270;2023-03-19T22:57:01;100432.72;;;-3.08;63.58
55347;BME280;41218;55.700;38.270;2023-03-19T23:02:02;100415.91;;;-3.15;63.80
55347;BME280;41218;55.700;38.270;2023-03-19T23:07:03;100423.72;;;-3.19;63.99
55347;BME280;41218;55.700;38.270;2023-03-19T23:12:05;100422.38;;;-3.22;63.96
55347;BME280;41218;55.700;38.270;2023-03-19T23:17:14;100421.28;;;-3.26;63.75
55347;BME280;41218;55.700;38.270;2023-03-19T23:22:16;100406.59;;;-3.35;63.79
55347;BME280;41218;55.700;38.270;2023-03-19T23:27:22;100412.56;;;-3.33;64.09
55347;BME280;41218;55.700;38.270;2023-03-19T23:32:23;100401.44;;;-3.42;64.14
55347;BME280;41218;55.700;38.270;2023-03-19T23:37:24;100393.53;;;-3.53;63.94
55347;BME280;41218;55.700;38.270;2023-03-19T23:42:26;100388.09;;;-3.58;64.48
55347;BME280;41218;55.700;38.270;2023-03-19T23:47:28;100404.88;;;-3.56;63.95
55347;BME280;41218;55.700;38.270;2023-03-19T23:52:29;100392.94;;;-3.60;63.92
55347;BME280;41218;55.700;38.270;2023-03-19T23:57:29;100396.69;;;-3.67;63.71
